Time;durP1;ratioP1;P1;durP2;ratioP2;P2;SDS_P1;SDS_P2;PMS_P1;PMS_P2;Temp;Humidity;BMP_temperature;BMP_pressure;BME280_temperature;BME280_humidity;BME280_pressure;Samples;Min_cycle;Max_cycle;Signal;HPM_P1;HPM_P2
2022/06/16 00:00:14;;;;;;;4.65;4.22;;;17.20;98.60;;;;;;5096449;28;20044;-81
2022/06/16 00:02:47;;;;;;;8.02;3.70;;;17.20;98.20;;;;;;5100235;28;20024;-80
2022/06/16 00:05:15;;;;;;;4.35;4.05;;;17.20;98.50;;;;;;5101173;28;20354;-79
2022/06/16 00:07:41;;;;;;;5.78;4.68;;;17.10;98.40;;;;;;5101478;28;20028;-80
2022/06/16 00:10:12;;;;;;;7.10;3.80;;;17.10;98.40;;;;;;5102260;28;20502;-80
2022/06/16 00:12:38;;;;;;;9.30;3.83;;;17.00;98.80;;;;;;5097799;28;20480;-81
2022/06/16 00:15:06;;;;;;;7.20;3.88;;;17.00;99.30;;;;;;5094817;28;20036;-79
2022/06/16 00:17:32;;;;;;;3.78;3.42;;;16.90;99.30;;;;;;5095428;28;20117;-79
2022/06/16 00:19:57;;;;;;;8.55;4.22;;;16.80;99.30;;;;;;5095007;28;20040;-79
2022/06/16 00:22:23;;;;;;;3.67;3.05;;;16.80;99.30;;;;;;5094873;28;20047;-79
2022/06/16 00:24:49;;;;;;;3.85;3.47;;;16.70;99.50;;;;;;5095155;28;20028;-79
2022/06/16 00:27:14;;;;;;;5.45;4.20;;;16.70;99.50;;;;;;5095218;28;20528;-81
2022/06/16 00:29:40;;;;;;;3.53;3.22;;;16.50;99.60;;;;;;5095797;28;20023;-79
2022/06/16 00:32:06;;;;;;;4.53;3.92;;;16.50;99.80;;;;;;5096225;28;20108;-79
2022/06/16 00:34:31;;;;;;;7.88;3.13;;;16.50;99.90;;;;;;5096112;28;20024;-80
2022/06/16 00:36:57;;;;;;;11.35;3.97;;;16.50;99.90;;;;;;5095214;28;20030;-79
2022/06/16 00:39:23;;;;;;;5.78;3.80;;;16.40;99.90;;;;;;5094928;28;20027;-79
2022/06/16 00:41:48;;;;;;;4.65;3.92;;;16.40;99.90;;;;;;5095853;28;20032;-80
2022/06/16 00:44:14;;;;;;;4.30;3.92;;;16.40;99.90;;;;;;5094992;28;20020;-79
2022/06/16 00:46:39;;;;;;;5.00;4.43;;;16.30;99.90;;;;;;5094506;28;20446;-79
2022/06/16 00:49:09;;;;;;;6.45;4.40;;;15.70;99.90;;;;;;5094638;28;20035;-80
2022/06/16 00:51:45;;;;;;;6.75;3.85;;;16.30;99.90;;;;;;5094367;28;20365;-80
2022/06/16 00:54:21;;;;;;;6.13;4.22;;;16.30;99.90;;;;;;5096114;28;20047;-80
2022/06/16 00:56:48;;;;;;;5.43;4.25;;;16.30;99.50;;;;;;5094139;28;20032;-79
2022/06/16 00:59:15;;;;;;;7.03;4.45;;;16.20;99.70;;;;;;5094156;28;20052;-79
2022/06/16 01:01:42;;;;;;;6.45;4.22;;;16.20;99.90;;;;;;5094114;28;20487;-78
2022/06/16 01:06:54;;;;;;;8.35;4.53;;;16.10;99.70;;;;;;5097489;28;20080;-78
2022/06/16 01:09:24;;;;;;;4.47;3.75;;;16.00;99.80;;;;;;5094440;28;20020;-80
2022/06/16 01:15:17;;;;;;;5.57;3.88;;;16.00;99.60;;;;;;5096098;28;20023;-80
2022/06/16 01:18:09;;;;;;;6.00;3.80;;;15.20;99.40;;;;;;5093855;28;20027;-80
2022/06/16 01:20:51;;;;;;;6.85;3.47;;;15.90;99.80;;;;;;5093022;28;20384;-80
2022/06/16 01:23:50;;;;;;;5.35;3.75;;;15.80;99.90;;;;;;5093929;28;20026;-79
2022/06/16 01:26:41;;;;;;;5.97;3.75;;;15.80;99.90;;;;;;5048385;28;20043;-79
2022/06/16 01:29:52;;;;;;;5.10;4.20;;;15.70;99.90;;;;;;5093621;28;20028;-78
2022/06/16 01:32:48;;;;;;;4.95;4.45;;;15.70;99.90;;;;;;5093255;28;20475;-79
2022/06/16 01:35:43;;;;;;;4.75;4.18;;;15.80;99.90;;;;;;5093719;28;20020;-79
2022/06/16 01:38:24;;;;;;;5.88;4.28;;;15.70;99.90;;;;;;5094080;28;20035;-79
2022/06/16 01:41:00;;;;;;;5.68;4.80;;;15.60;99.90;;;;;;5093393;28;20119;-78
2022/06/16 01:43:41;;;;;;;5.25;4.43;;;15.60;99.90;;;;;;5093657;28;20036;-80
2022/06/16 01:46:17;;;;;;;7.82;5.32;;;15.50;99.90;;;;;;5093082;28;20047;-79
2022/06/16 01:48:48;;;;;;;6.32;5.43;;;15.50;99.90;;;;;;5093621;28;20043;-79
2022/06/16 01:51:38;;;;;;;11.00;6.28;;;15.50;99.90;;;;;;5093945;28;20422;-79
2022/06/16 01:54:23;;;;;;;6.70;6.07;;;15.50;99.90;;;;;;5093272;28;20047;-79
2022/06/16 01:56:53;;;;;;;6.65;6.05;;;15.40;99.90;;;;;;5094163;28;20506;-79
2022/06/16 01:59:28;;;;;;;6.57;6.00;;;15.30;99.90;;;;;;5093847;28;20052;-79
2022/06/16 02:02:00;;;;;;;6.28;5.68;;;15.20;99.90;;;;;;5104833;28;20088;-80
2022/06/16 02:04:36;;;;;;;6.65;6.00;;;15.20;99.90;;;;;;5094407;28;20063;-80
2022/06/16 02:07:08;;;;;;;6.97;6.30;;;15.20;99.90;;;;;;5092823;28;20035;-79
2022/06/16 02:09:41;;;;;;;6.30;5.68;;;15.10;99.90;;;;;;5093582;28;20016;-79
2022/06/16 02:12:55;;;;;;;7.35;5.95;;;15.00;99.90;;;;;;5105358;28;20073;-78
2022/06/16 02:15:06;;;;;;;6.20;5.70;;;15.00;99.90;;;;;;5094471;28;20035;-79
2022/06/16 02:17:31;;;;;;;7.90;6.50;;;14.90;99.90;;;;;;5107264;28;20024;-79
2022/06/16 02:19:57;;;;;;;6.25;5.60;;;14.90;99.90;;;;;;5093321;28;20043;-80
2022/06/16 02:22:22;;;;;;;5.88;5.32;;;14.90;99.90;;;;;;5093335;28;20016;-79
2022/06/16 02:24:48;;;;;;;6.43;5.82;;;14.90;99.90;;;;;;5093330;28;20476;-79
2022/06/16 02:27:13;;;;;;;10.68;5.75;;;14.80;99.90;;;;;;5093288;28;20051;-80
2022/06/16 02:29:39;;;;;;;7.07;6.20;;;14.80;99.90;;;;;;5092762;28;20464;-79
2022/06/16 02:32:23;;;;;;;6.85;6.25;;;14.80;99.90;;;;;;5093586;28;20073;-79
2022/06/16 02:35:29;;;;;;;7.45;5.60;;;14.70;99.90;;;;;;5097147;28;20044;-79
2022/06/16 02:38:08;;;;;;;8.23;6.28;;;14.70;99.90;;;;;;5097244;28;20028;-80
2022/06/16 02:41:18;;;;;;;6.13;5.53;;;14.60;99.90;;;;;;5096809;28;20036;-79
2022/06/16 02:44:08;;;;;;;8.27;5.72;;;14.60;99.90;;;;;;5014606;28;20030;-79
2022/06/16 02:47:03;;;;;;;7.95;6.18;;;14.50;99.90;;;;;;5014586;28;20466;-79
2022/06/16 02:49:43;;;;;;;8.35;5.53;;;14.50;99.90;;;;;;5082857;28;20033;-79
2022/06/16 02:52:18;;;;;;;9.25;5.55;;;14.50;99.90;;;;;;5096772;28;20032;-79
2022/06/16 02:55:03;;;;;;;7.78;5.88;;;14.50;99.90;;;;;;5096636;28;20020;-80
2022/06/16 02:57:44;;;;;;;9.07;6.30;;;14.40;99.90;;;;;;5096160;28;20081;-79
2022/06/16 03:00:13;;;;;;;7.65;6.20;;;14.40;99.90;;;;;;5096380;28;20123;-78
2022/06/16 03:02:41;;;;;;;7.45;6.13;;;14.30;99.90;;;;;;5097846;28;20024;-79
2022/06/16 03:05:08;;;;;;;8.20;5.80;;;14.30;99.90;;;;;;5099283;28;20024;-79
2022/06/16 03:07:37;;;;;;;8.93;6.88;;;14.30;99.90;;;;;;5099130;28;20024;-80
2022/06/16 03:10:06;;;;;;;6.88;6.25;;;14.30;99.90;;;;;;5096563;28;20024;-79
2022/06/16 03:12:32;;;;;;;6.97;6.38;;;14.30;99.90;;;;;;5096335;28;20024;-79
2022/06/16 03:14:58;;;;;;;6.13;5.65;;;14.30;99.90;;;;;;5096204;28;20024;-79
2022/06/16 03:17:24;;;;;;;9.02;6.07;;;14.20;99.90;;;;;;5095857;28;20024;-79
2022/06/16 03:19:49;;;;;;;6.70;5.82;;;14.10;99.90;;;;;;5097446;28;20498;-81
2022/06/16 03:22:18;;;;;;;7.22;5.60;;;14.10;99.90;;;;;;5096239;28;20103;-81
2022/06/16 03:24:44;;;;;;;6.43;5.43;;;14.00;99.90;;;;;;5095672;28;20031;-80
2022/06/16 03:27:11;;;;;;;7.15;5.82;;;14.00;99.90;;;;;;5096724;28;20025;-81
2022/06/16 03:29:37;;;;;;;9.10;6.57;;;14.00;99.90;;;;;;5095997;28;20030;-80
2022/06/16 03:32:03;;;;;;;7.43;6.35;;;14.00;99.90;;;;;;5095727;28;20443;-82
2022/06/16 03:34:29;;;;;;;6.50;5.63;;;14.00;99.90;;;;;;5096021;28;20472;-81
2022/06/16 03:36:54;;;;;;;8.93;6.88;;;14.00;99.90;;;;;;5095537;28;20059;-81
2022/06/16 03:39:20;;;;;;;6.65;6.05;;;14.00;99.90;;;;;;5095465;28;20016;-79
2022/06/16 03:41:45;;;;;;;12.30;6.32;;;14.00;99.90;;;;;;5095414;28;20031;-80
2022/06/16 03:44:11;;;;;;;9.00;6.63;;;14.00;99.90;;;;;;5095116;28;20032;-81
2022/06/16 03:46:37;;;;;;;7.90;6.03;;;14.10;99.90;;;;;;5095367;28;20376;-80
2022/06/16 03:49:04;;;;;;;7.75;5.60;;;14.10;99.90;;;;;;5095426;28;20024;-80
2022/06/16 03:51:30;;;;;;;6.15;5.63;;;14.10;99.90;;;;;;5096396;28;20020;-80
2022/06/16 03:53:56;;;;;;;6.10;5.55;;;14.20;99.90;;;;;;5096152;28;20069;-79
2022/06/16 03:56:21;;;;;;;7.10;5.68;;;14.20;99.90;;;;;;5096006;28;20028;-80
2022/06/16 03:58:52;;;;;;;8.05;5.63;;;14.20;99.90;;;;;;5095757;28;20131;-80
2022/06/16 04:01:18;;;;;;;6.55;5.95;;;14.30;99.90;;;;;;5097243;28;20375;-80
2022/06/16 04:04:02;;;;;;;7.47;5.88;;;14.40;99.90;;;;;;5100457;28;20530;-80
2022/06/16 04:06:33;;;;;;;7.20;5.70;;;14.40;99.90;;;;;;5098965;28;20081;-79
2022/06/16 04:08:59;;;;;;;6.32;5.68;;;14.50;99.90;;;;;;5099834;28;20027;-80
2022/06/16 04:11:28;;;;;;;6.85;6.25;;;14.50;99.90;;;;;;5095350;28;20016;-80
2022/06/16 04:14:08;;;;;;;5.55;5.03;;;14.50;99.90;;;;;;5097109;28;20073;-80
2022/06/16 04:16:39;;;;;;;;;;;14.60;99.90;;;;;;5096715;28;20031;-79
2022/06/16 04:19:05;;;;;;;8.13;5.35;;;14.60;99.90;;;;;;5095560;28;19912;-81
2022/06/16 04:21:31;;;;;;;6.88;4.90;;;14.60;99.90;;;;;;5102057;28;20032;-80
2022/06/16 04:23:57;;;;;;;4.93;4.53;;;14.60;99.90;;;;;;5096646;28;20027;-80
2022/06/16 04:26:23;;;;;;;7.43;5.60;;;14.60;99.90;;;;;;5095344;28;20020;-80
2022/06/16 04:28:49;;;;;;;11.57;5.70;;;14.70;99.90;;;;;;5094577;28;20020;-80
2022/06/16 04:31:15;;;;;;;6.93;4.88;;;14.70;99.90;;;;;;5094534;28;20042;-81
2022/06/16 04:33:41;;;;;;;7.93;6.05;;;14.60;99.90;;;;;;5094848;28;20023;-80
2022/06/16 04:36:11;;;;;;;6.57;5.43;;;14.70;99.90;;;;;;5094307;28;20028;-80
2022/06/16 04:38:36;;;;;;;6.65;4.97;;;14.80;99.90;;;;;;5094548;28;20388;-80
2022/06/16 04:41:02;;;;;;;5.75;4.63;;;14.70;99.90;;;;;;5094827;28;20096;-80
2022/06/16 04:43:28;;;;;;;5.78;5.20;;;14.70;99.90;;;;;;5094251;28;20012;-80
2022/06/16 04:45:55;;;;;;;6.05;5.40;;;14.80;99.90;;;;;;5094313;28;20020;-80
2022/06/16 04:48:21;;;;;;;6.82;6.20;;;14.80;99.90;;;;;;5094912;28;20052;-81
2022/06/16 04:50:47;;;;;;;6.72;5.43;;;14.80;99.90;;;;;;5094325;28;20461;-81
2022/06/16 04:53:12;;;;;;;6.18;5.53;;;14.80;99.90;;;;;;5094573;28;20024;-80
2022/06/16 04:55:38;;;;;;;8.98;6.30;;;14.80;99.90;;;;;;5094276;28;20027;-81
2022/06/16 04:58:04;;;;;;;7.68;5.78;;;14.80;99.90;;;;;;5094544;28;20019;-80
2022/06/16 05:00:30;;;;;;;5.97;5.47;;;14.90;99.90;;;;;;5094121;28;20052;-81
2022/06/16 05:02:56;;;;;;;7.20;6.50;;;14.90;99.90;;;;;;5095907;28;20023;-80
2022/06/16 05:05:22;;;;;;;8.52;6.03;;;14.90;99.90;;;;;;5094271;28;20387;-81
2022/06/16 05:07:48;;;;;;;6.78;6.05;;;14.90;99.90;;;;;;5094073;28;20020;-81
2022/06/16 05:10:14;;;;;;;6.82;6.25;;;15.00;99.90;;;;;;5092817;28;20059;-81
2022/06/16 05:12:40;;;;;;;8.77;6.22;;;15.00;99.90;;;;;;5094366;28;20021;-81
2022/06/16 05:15:06;;;;;;;7.88;6.93;;;15.00;99.90;;;;;;5093773;28;20059;-80
2022/06/16 05:17:32;;;;;;;8.32;6.35;;;15.10;99.90;;;;;;5093487;28;20414;-81
2022/06/16 05:19:57;;;;;;;6.38;5.68;;;15.10;99.90;;;;;;5093529;28;20035;-80
2022/06/16 05:22:24;;;;;;;9.00;5.88;;;15.20;99.90;;;;;;5093853;28;20028;-80
2022/06/16 05:24:50;;;;;;;10.77;5.80;;;15.20;99.90;;;;;;5093465;28;20468;-81
2022/06/16 05:27:16;;;;;;;7.30;5.10;;;15.30;99.90;;;;;;5093432;28;20526;-81
2022/06/16 05:29:42;;;;;;;7.88;5.45;;;15.30;99.90;;;;;;5093609;28;20444;-81
2022/06/16 05:32:09;;;;;;;10.55;5.40;;;15.50;99.90;;;;;;5093536;28;20028;-80
2022/06/16 05:34:36;;;;;;;9.15;5.22;;;15.60;99.90;;;;;;5093537;28;20434;-81
2022/06/16 05:37:02;;;;;;;7.57;4.63;;;15.60;99.90;;;;;;5093836;28;20032;-81
2022/06/16 05:39:28;;;;;;;5.90;5.38;;;15.70;99.90;;;;;;5093042;28;20016;-80
2022/06/16 05:41:53;;;;;;;13.63;7.30;;;15.80;99.90;;;;;;5093810;28;20399;-80
2022/06/16 05:44:19;;;;;;;9.48;5.45;;;15.90;99.90;;;;;;5093444;28;20016;-80
2022/06/16 05:46:45;;;;;;;5.60;4.82;;;16.00;99.90;;;;;;5093190;28;20028;-81
2022/06/16 05:49:15;;;;;;;5.55;4.70;;;16.00;99.90;;;;;;5093398;28;20383;-81
2022/06/16 05:51:41;;;;;;;11.60;4.95;;;16.10;99.90;;;;;;5093519;28;20051;-81
2022/06/16 05:54:06;;;;;;;20.65;5.57;;;16.00;99.90;;;;;;5092903;28;20483;-81
2022/06/16 05:56:33;;;;;;;8.00;5.53;;;16.10;99.90;;;;;;5093233;28;20024;-81
2022/06/16 05:58:58;;;;;;;4.68;4.13;;;16.10;99.80;;;;;;5092603;28;20385;-82
2022/06/16 06:01:24;;;;;;;3.78;3.35;;;16.20;98.90;;;;;;5093633;28;20032;-81
2022/06/16 06:03:50;;;;;;;4.97;3.70;;;16.20;99.30;;;;;;5093711;28;20020;-80
2022/06/16 06:06:15;;;;;;;4.93;3.50;;;16.30;98.10;;;;;;5094540;28;20085;-80
2022/06/16 06:17:13;;;;;;;7.30;3.17;;;16.40;98.00;;;;;;5101061;28;20089;-80
2022/06/16 06:19:39;;;;;;;7.57;3.05;;;16.40;98.50;;;;;;5093682;28;20093;-80
2022/06/16 06:22:11;;;;;;;4.50;3.40;;;16.40;97.80;;;;;;5096936;28;20055;-80
2022/06/16 06:24:48;;;;;;;7.93;3.38;;;16.40;97.50;;;;;;5104633;28;20111;-81
2022/06/16 06:27:25;;;;;;;6.57;3.28;;;16.50;97.60;;;;;;5099112;28;20070;-80
2022/06/16 06:29:50;;;;;;;3.70;2.90;;;16.60;97.50;;;;;;5104959;28;20024;-80
2022/06/16 06:32:18;;;;;;;3.80;3.17;;;16.60;97.40;;;;;;5093138;28;20024;-80
2022/06/16 06:34:44;;;;;;;4.60;3.53;;;16.60;97.60;;;;;;5092801;28;20035;-80
2022/06/16 06:37:12;;;;;;;4.88;3.35;;;16.70;98.00;;;;;;5093704;28;20016;-79
2022/06/16 06:39:41;;;;;;;3.20;2.83;;;16.70;97.50;;;;;;5092935;28;20107;-80
2022/06/16 06:42:08;;;;;;;6.45;2.92;;;16.70;97.70;;;;;;5093142;28;20040;-79
2022/06/16 06:44:34;;;;;;;4.30;3.05;;;16.80;97.50;;;;;;5095443;28;20063;-80
2022/06/16 06:47:00;;;;;;;4.55;2.83;;;16.80;96.50;;;;;;5094499;28;20024;-82
2022/06/16 06:49:27;;;;;;;5.65;2.90;;;16.90;96.70;;;;;;5094787;28;20055;-78
2022/06/16 06:51:52;;;;;;;5.40;3.53;;;17.00;96.30;;;;;;5094504;28;20101;-78
2022/06/16 06:54:18;;;;;;;4.45;2.88;;;17.00;96.00;;;;;;5093756;28;20468;-79
2022/06/16 06:56:45;;;;;;;2.90;2.70;;;17.00;95.80;;;;;;5096176;28;20031;-80
2022/06/16 06:59:15;;;;;;;4.22;2.95;;;17.10;96.20;;;;;;5095947;28;20161;-80
2022/06/16 07:01:41;;;;;;;3.67;2.90;;;17.20;95.90;;;;;;5096795;28;20173;-80
2022/06/16 07:04:06;;;;;;;5.35;3.17;;;17.20;95.90;;;;;;5095336;28;20048;-79
2022/06/16 07:06:32;;;;;;;4.30;2.90;;;17.30;96.30;;;;;;5094896;28;20024;-80
2022/06/16 07:08:58;;;;;;;3.47;2.63;;;17.30;96.10;;;;;;5096879;28;20044;-79
2022/06/16 07:11:24;;;;;;;4.40;3.40;;;17.40;95.80;;;;;;5098506;28;20016;-79
2022/06/16 07:13:49;;;;;;;5.63;3.33;;;17.50;95.40;;;;;;5096790;28;20074;-79
2022/06/16 07:16:15;;;;;;;3.60;2.97;;;17.50;95.20;;;;;;5097292;28;20086;-79
2022/06/16 07:18:41;;;;;;;6.15;3.05;;;17.60;95.60;;;;;;5097288;28;20107;-80
2022/06/16 07:21:07;;;;;;;5.00;2.95;;;17.60;95.70;;;;;;5101102;28;20075;-80
2022/06/16 07:23:33;;;;;;;5.85;2.95;;;17.60;95.30;;;;;;5100576;28;20081;-80
2022/06/16 07:25:58;;;;;;;4.30;2.72;;;17.70;95.30;;;;;;5104850;28;20024;-80
2022/06/16 07:28:24;;;;;;;5.97;2.42;;;17.60;94.60;;;;;;5104273;28;20483;-80
2022/06/16 07:30:50;;;;;;;3.05;2.60;;;17.80;94.70;;;;;;5106245;28;20020;-79
2022/06/16 07:33:15;;;;;;;3.55;2.90;;;17.90;93.90;;;;;;5103777;28;20030;-80
2022/06/16 07:35:43;;;;;;;3.88;2.67;;;18.00;93.90;;;;;;5105607;28;20028;-80
2022/06/16 07:38:11;;;;;;;3.65;2.30;;;18.00;93.50;;;;;;5103330;28;20119;-80
2022/06/16 07:40:37;;;;;;;4.05;2.63;;;18.00;93.90;;;;;;5103445;28;20051;-80
2022/06/16 07:43:03;;;;;;;2.95;2.63;;;18.10;93.60;;;;;;5102134;28;20020;-79
2022/06/16 07:45:29;;;;;;;3.78;2.45;;;18.10;93.70;;;;;;5101313;28;20104;-80
2022/06/16 07:47:57;;;;;;;6.22;2.58;;;18.20;93.90;;;;;;5100010;28;20024;-79
2022/06/16 07:50:23;;;;;;;3.40;2.13;;;18.20;93.80;;;;;;5102863;28;20054;-79
2022/06/16 07:52:49;;;;;;;2.63;1.95;;;18.30;93.30;;;;;;5095883;28;20028;-80
2022/06/16 07:55:14;;;;;;;2.80;1.70;;;18.40;93.70;;;;;;5096096;28;20047;-80
2022/06/16 07:57:46;;;;;;;3.28;2.20;;;18.50;93.70;;;;;;5096547;28;20031;-80
2022/06/16 08:00:16;;;;;;;3.30;2.05;;;18.60;93.70;;;;;;5098436;28;20051;-79
2022/06/16 08:02:41;;;;;;;;;;;18.70;93.70;;;;;;5097183;28;20016;-80
2022/06/16 08:05:12;;;;;;;2.40;1.95;;;18.80;93.50;;;;;;5100405;28;19904;-79
2022/06/16 08:07:39;;;;;;;4.82;1.70;;;18.90;93.40;;;;;;5098565;28;20024;-80
2022/06/16 08:10:06;;;;;;;3.70;1.80;;;18.90;93.00;;;;;;5100041;28;20082;-80
2022/06/16 08:12:34;;;;;;;4.85;1.85;;;18.40;92.70;;;;;;5097841;28;20152;-79
2022/06/16 08:15:00;;;;;;;3.28;2.33;;;19.10;92.60;;;;;;5097122;28;20039;-81
2022/06/16 08:17:30;;;;;;;3.85;2.03;;;19.20;92.30;;;;;;5100267;28;20081;-80
2022/06/16 08:19:57;;;;;;;2.20;2.00;;;19.20;91.90;;;;;;5115013;28;20039;-79
2022/06/16 08:22:24;;;;;;;12.20;2.28;;;19.20;91.70;;;;;;5103320;28;20024;-79
2022/06/16 08:24:49;;;;;;;2.08;1.98;;;19.20;91.40;;;;;;5098848;28;20020;-80
2022/06/16 08:27:18;;;;;;;4.07;2.05;;;19.20;92.00;;;;;;5098915;28;20086;-80
2022/06/16 08:29:44;;;;;;;2.22;1.80;;;19.40;92.50;;;;;;5102322;28;20053;-80
2022/06/16 08:32:12;;;;;;;2.47;1.75;;;19.40;92.40;;;;;;5098369;28;20051;-79
2022/06/16 08:34:38;;;;;;;4.47;2.22;;;19.50;92.20;;;;;;5101337;28;20031;-79
2022/06/16 08:37:04;;;;;;;4.00;2.50;;;19.50;92.00;;;;;;5097492;28;20082;-79
2022/06/16 08:39:30;;;;;;;2.40;1.88;;;19.60;91.70;;;;;;5096340;28;20383;-79
2022/06/16 08:42:20;;;;;;;4.20;1.73;;;19.80;91.60;;;;;;5096539;28;20115;-80
2022/06/16 08:44:52;;;;;;;3.78;2.70;;;19.80;91.50;;;;;;5095542;28;20462;-80
2022/06/16 08:47:37;;;;;;;4.35;2.13;;;19.90;91.60;;;;;;5095823;28;20028;-79
2022/06/16 08:50:25;;;;;;;2.13;1.75;;;19.90;90.90;;;;;;5095320;28;20028;-80
2022/06/16 08:53:06;;;;;;;7.20;2.33;;;19.90;90.80;;;;;;5094902;28;20107;-80
2022/06/16 08:55:46;;;;;;;2.88;2.08;;;20.00;91.40;;;;;;5094862;28;20035;-79
2022/06/16 08:58:30;;;;;;;4.27;2.27;;;20.00;91.40;;;;;;5094789;28;20060;-79
2022/06/16 09:01:01;;;;;;;4.30;2.17;;;20.10;91.20;;;;;;5094508;28;20047;-78
2022/06/16 09:03:44;;;;;;;5.68;2.08;;;20.10;90.70;;;;;;5094503;28;20024;-78
2022/06/16 09:06:28;;;;;;;5.10;2.08;;;20.20;90.50;;;;;;5096121;28;20103;-78
2022/06/16 09:09:14;;;;;;;5.68;2.22;;;20.20;90.60;;;;;;5094869;28;20441;-78
2022/06/16 09:11:57;;;;;;;2.40;2.20;;;20.30;90.90;;;;;;5095879;28;20028;-79
2022/06/16 09:17:31;;;;;;;5.50;2.50;;;20.50;90.70;;;;;;5094650;28;20035;-79
2022/06/16 09:20:02;;;;;;;3.88;2.42;;;20.60;90.20;;;;;;5094574;28;20093;-79
2022/06/16 09:22:56;;;;;;;3.67;2.67;;;20.70;90.20;;;;;;5094512;28;20039;-79
2022/06/16 09:25:40;;;;;;;2.92;2.38;;;20.70;89.40;;;;;;5094318;28;20486;-79
2022/06/16 09:28:13;;;;;;;11.35;2.60;;;20.70;90.30;;;;;;5094226;28;20492;-79
2022/06/16 09:30:42;;;;;;;3.95;2.38;;;20.80;90.40;;;;;;5093556;28;20035;-79
2022/06/16 09:33:19;;;;;;;5.28;2.28;;;20.90;90.30;;;;;;5093832;28;20024;-80
2022/06/16 09:36:26;;;;;;;10.00;3.00;;;21.00;90.10;;;;;;5094276;28;20100;-79
2022/06/16 09:38:58;;;;;;;3.47;2.72;;;21.10;90.50;;;;;;5092747;28;20077;-79
2022/06/16 09:44:51;;;;;;;;;;;21.30;90.00;;;;;;5093601;28;20104;-79
2022/06/16 09:47:24;;;;;;;7.38;2.78;;;21.40;88.60;;;;;;5090722;28;19907;-79
2022/06/16 09:49:59;;;;;;;4.78;3.30;;;21.40;89.70;;;;;;5093843;28;20044;-79
2022/06/16 09:52:44;;;;;;;5.90;3.15;;;21.50;89.10;;;;;;5093519;28;20020;-78
2022/06/16 09:55:29;;;;;;;3.65;2.50;;;21.50;88.90;;;;;;5093426;28;20028;-80
2022/06/16 09:58:04;;;;;;;3.42;2.38;;;21.50;89.80;;;;;;5093380;28;20024;-79
2022/06/16 10:00:33;;;;;;;3.85;3.00;;;21.60;89.60;;;;;;5093385;28;20059;-80
2022/06/16 10:03:24;;;;;;;7.55;2.50;;;21.60;89.40;;;;;;5093718;28;20495;-79
2022/06/16 10:06:19;;;;;;;2.70;2.50;;;21.70;89.20;;;;;;5092919;28;20024;-79
2022/06/16 10:09:18;;;;;;;3.75;2.28;;;21.70;88.90;;;;;;5093391;28;20059;-79
2022/06/16 10:12:04;;;;;;;6.55;2.60;;;21.80;88.60;;;;;;5093311;28;20051;-77
2022/06/16 10:14:47;;;;;;;3.33;2.13;;;22.00;89.80;;;;;;5092685;28;20043;-80
2022/06/16 10:17:17;;;;;;;4.15;2.15;;;22.00;89.30;;;;;;5093048;28;20047;-80
2022/06/16 10:19:44;;;;;;;4.45;2.72;;;22.00;88.90;;;;;;5092836;28;20507;-79
2022/06/16 10:22:13;;;;;;;4.00;2.85;;;22.20;90.30;;;;;;5093057;28;20464;-79
2022/06/16 10:24:45;;;;;;;7.82;2.47;;;22.30;89.50;;;;;;5103624;28;20024;-79
2022/06/16 10:27:13;;;;;;;5.65;2.70;;;22.30;89.00;;;;;;5094993;28;20032;-79
2022/06/16 10:29:54;;;;;;;4.75;2.65;;;22.40;88.50;;;;;;5093292;28;20365;-79
2022/06/16 10:32:35;;;;;;;4.55;1.98;;;22.40;87.00;;;;;;5093357;28;20027;-80
2022/06/16 10:35:01;;;;;;;4.38;2.75;;;22.30;87.50;;;;;;5106298;28;20025;-79
2022/06/16 10:37:29;;;;;;;6.38;2.95;;;22.50;87.80;;;;;;5103068;28;20095;-77
2022/06/16 10:40:19;;;;;;;3.92;2.95;;;22.60;87.40;;;;;;5101645;28;20020;-77
2022/06/16 10:42:54;;;;;;;4.70;2.80;;;22.60;87.70;;;;;;5100792;28;20028;-78
2022/06/16 10:45:23;;;;;;;4.50;3.22;;;22.60;85.80;;;;;;5093305;28;20640;-80
2022/06/16 10:48:00;;;;;;;5.38;2.70;;;22.60;85.10;;;;;;5092927;28;20051;-80
2022/06/16 10:50:33;;;;;;;3.35;2.60;;;22.70;86.30;;;;;;5092894;28;20024;-80
2022/06/16 10:53:24;;;;;;;3.83;2.55;;;22.70;85.70;;;;;;5093468;28;20080;-79
2022/06/16 10:55:56;;;;;;;4.00;2.80;;;22.70;84.60;;;;;;5096085;28;20468;-80
2022/06/16 10:58:25;;;;;;;4.15;2.80;;;22.80;84.10;;;;;;5096226;28;20380;-78
2022/06/16 11:01:16;;;;;;;4.68;3.22;;;22.70;85.40;;;;;;5096370;28;20047;-80
2022/06/16 11:03:48;;;;;;;5.20;2.72;;;22.80;84.80;;;;;;5096040;28;20035;-78
2022/06/16 11:06:16;;;;;;;5.78;3.25;;;22.80;85.20;;;;;;5096461;28;20031;-78
2022/06/16 11:09:01;;;;;;;4.70;2.88;;;22.90;82.90;;;;;;5095860;28;20032;-78
2022/06/16 11:11:42;;;;;;;4.43;2.90;;;23.00;83.60;;;;;;5096301;28;20028;-78
2022/06/16 11:14:16;;;;;;;4.75;2.80;;;23.00;84.00;;;;;;5096919;28;20028;-79
2022/06/16 11:16:49;;;;;;;5.07;3.83;;;23.00;84.20;;;;;;5093061;28;20024;-79
2022/06/16 11:19:26;;;;;;;4.97;3.08;;;23.00;83.50;;;;;;5096042;28;20468;-79
2022/06/16 11:21:55;;;;;;;3.67;2.00;;;23.00;83.80;;;;;;5096087;28;20039;-78
2022/06/16 11:24:29;;;;;;;9.45;3.55;;;23.10;84.60;;;;;;5095964;28;20099;-78
2022/06/16 11:27:21;;;;;;;4.00;3.53;;;23.20;83.30;;;;;;5095676;28;20025;-78
2022/06/16 11:29:47;;;;;;;6.28;3.95;;;23.30;82.50;;;;;;5091555;28;20036;-78
2022/06/16 11:32:17;;;;;;;9.63;3.17;;;23.20;83.50;;;;;;5095836;28;20158;-79
2022/06/16 11:34:45;;;;;;;5.40;2.78;;;23.20;83.40;;;;;;5096151;28;20051;-79
2022/06/16 11:37:29;;;;;;;5.45;3.20;;;23.10;83.00;;;;;;5095362;28;20517;-79
2022/06/16 11:40:13;;;;;;;2.85;2.55;;;23.20;84.40;;;;;;5095431;28;20024;-78
2022/06/16 11:42:48;;;;;;;4.15;3.70;;;23.20;84.40;;;;;;5095814;28;20036;-81
2022/06/16 11:45:42;;;;;;;3.85;2.60;;;23.30;82.70;;;;;;5095337;28;20024;-80
2022/06/16 11:48:17;;;;;;;4.85;3.33;;;23.30;83.60;;;;;;5095875;28;20042;-79
2022/06/16 11:51:14;;;;;;;4.55;2.97;;;23.50;83.80;;;;;;5095520;28;20028;-79
2022/06/16 11:53:45;;;;;;;4.60;2.97;;;23.50;83.60;;;;;;5087410;28;20024;-79
2022/06/16 11:56:20;;;;;;;6.25;3.38;;;23.60;82.70;;;;;;5095774;28;20016;-80
2022/06/16 11:59:30;;;;;;;4.20;3.80;;;23.70;82.70;;;;;;5095370;28;20040;-78
2022/06/16 12:02:18;;;;;;;;;;;23.80;81.80;;;;;;5064417;28;20051;-78
2022/06/16 12:05:02;;;;;;;5.78;2.97;;;23.60;82.00;;;;;;5094177;28;20390;-78
2022/06/16 12:07:47;;;;;;;3.53;2.90;;;23.70;82.50;;;;;;5095086;28;20025;-78
2022/06/16 12:10:29;;;;;;;4.97;3.40;;;23.80;82.20;;;;;;5095226;28;20056;-78
2022/06/16 12:13:15;;;;;;;4.82;2.70;;;23.90;82.80;;;;;;5094717;28;20020;-78
2022/06/16 12:16:02;;;;;;;10.25;3.40;;;24.10;83.70;;;;;;5094897;28;20076;-78
2022/06/16 12:18:36;;;;;;;3.42;3.10;;;24.30;80.90;;;;;;5095332;28;20111;-77
2022/06/16 12:21:17;;;;;;;7.28;2.70;;;24.40;81.40;;;;;;5094116;28;20124;-78
2022/06/16 12:24:07;;;;;;;3.83;3.10;;;24.40;81.10;;;;;;5095196;28;20028;-79
2022/06/16 12:26:56;;;;;;;3.88;2.50;;;24.60;81.00;;;;;;5094935;28;20035;-79
2022/06/16 12:29:31;;;;;;;5.10;3.15;;;24.70;80.00;;;;;;5099791;28;20024;-81
2022/06/16 12:32:18;;;;;;;5.20;3.83;;;24.90;79.30;;;;;;5109765;28;20032;-78
2022/06/16 12:34:53;;;;;;;5.72;3.65;;;25.00;79.00;;;;;;5098836;28;20028;-77
2022/06/16 12:37:23;;;;;;;3.97;3.45;;;24.80;78.60;;;;;;5098066;28;20012;-78
2022/06/16 12:39:55;;;;;;;;;;;24.80;78.80;;;;;;5098329;28;20028;-78
2022/06/16 12:42:24;;;;;;;3.45;2.67;;;24.80;79.20;;;;;;5100997;28;20413;-78
2022/06/16 12:45:18;;;;;;;6.07;3.33;;;24.90;78.70;;;;;;5095804;28;20039;-79
2022/06/16 12:47:49;;;;;;;4.07;2.50;;;25.10;79.70;;;;;;5094391;28;20032;-78
2022/06/16 12:50:38;;;;;;;2.88;2.60;;;25.20;79.30;;;;;;5094774;28;20055;-78
2022/06/16 12:53:06;;;;;;;2.67;2.42;;;25.40;79.00;;;;;;5094420;28;20103;-77
2022/06/16 12:55:47;;;;;;;5.50;3.05;;;25.60;78.30;;;;;;5093969;28;20480;-78
2022/06/16 12:58:24;;;;;;;6.60;2.80;;;25.70;77.40;;;;;;5094713;28;20077;-79
2022/06/16 13:00:55;;;;;;;2.97;2.33;;;25.70;77.60;;;;;;5094288;28;20480;-79
2022/06/16 13:03:31;;;;;;;2.50;2.30;;;25.60;77.40;;;;;;5094276;28;20032;-80
2022/06/16 13:05:57;;;;;;;2.63;2.40;;;25.70;77.30;;;;;;5094221;28;20157;-78
2022/06/16 13:08:26;;;;;;;5.45;2.58;;;25.90;78.20;;;;;;5093770;28;20047;-79
2022/06/16 13:10:57;;;;;;;3.35;2.22;;;25.90;76.30;;;;;;5093811;28;20487;-79
2022/06/16 13:13:27;;;;;;;3.38;2.53;;;25.80;75.60;;;;;;5094179;28;20456;-79
2022/06/16 13:15:55;;;;;;;2.55;1.80;;;25.70;76.30;;;;;;5093610;28;20024;-79
2022/06/16 13:18:28;;;;;;;3.95;2.63;;;25.70;76.10;;;;;;5093038;28;20055;-79
2022/06/16 13:20:59;;;;;;;4.68;2.03;;;25.90;76.00;;;;;;5094277;28;20032;-79
2022/06/16 13:23:29;;;;;;;3.25;2.45;;;26.00;75.90;;;;;;5094111;28;20141;-78
2022/06/16 13:26:06;;;;;;;;;;;26.30;75.00;;;;;;5094100;28;20020;-79
2022/06/16 13:28:39;;;;;;;2.25;1.67;;;26.50;75.60;;;;;;5093847;28;19904;-79
2022/06/16 13:31:13;;;;;;;5.68;2.35;;;26.70;75.20;;;;;;5093590;28;20027;-79
2022/06/16 13:33:53;;;;;;;4.05;1.98;;;26.80;73.60;;;;;;5093575;28;20034;-78
2022/06/16 13:36:30;;;;;;;3.40;1.92;;;26.90;73.80;;;;;;5093225;28;20047;-79